Date,TemperatureHighF,TemperatureAvgF,TemperatureLowF,DewpointHighF,DewpointAvgF,DewpointLowF,HumidityHigh,HumidityAvg,HumidityLow,PressureMaxIn,PressureMinIn,WindSpeedMaxMPH,WindSpeedAvgMPH,GustSpeedMaxMPH,PrecipitationSumIn
2013-2-1,17.8,11.3,4.8,11.0,4.2,-1.5,84,73,56,30.04,29.45,7,1,16,0.00
2013-2-2,18.7,11.9,2.3,15.0,8.1,-3.1,91,84,74,30.06,29.85,8,1,15,0.00
2013-2-3,25.2,13.0,4.1,18.2,9.3,1.7,90,85,73,29.86,29.65,4,1,8,0.04
2013-2-4,20.8,10.4,-3.8,10.9,2.7,-9.6,92,72,42,29.82,29.65,8,1,17,0.00
2013-2-5,22.6,6.6,-11.9,7.1,-3.9,-16.4,83,63,37,29.88,29.71,7,1,9,3.02
2013-2-6,24.3,16.1,2.7,22.3,7.3,-5.8,94,69,43,30.28,29.68,6,2,14,0.00
2013-2-7,13.8,2.8,-1.1,-0.2,-5.1,-8.9,79,69,50,30.43,30.26,4,1,8,0.00
2013-2-8,13.1,7.4,3.6,11.2,4.4,-2.9,92,87,71,30.20,29.85,7,3,15,0.00
2013-2-9,18.0,9.9,1.2,11.3,4.9,-3.8,91,80,65,30.26,29.94,7,2,13,0.00
2013-2-10,33.4,14.7,-3.8,11.5,3.1,-7.8,85,63,32,30.32,29.98,3,1,6,0.05
2013-2-11,43.7,31.0,13.8,39.1,26.5,5.5,94,83,69,29.97,29.43,10,2,19,0.07
2013-2-12,35.4,32.6,29.5,32.7,29.8,24.3,100,90,75,29.74,29.45,9,2,16,0.17
2013-2-17,14.5,5.2,-4.9,2.5,-2.3,-9.0,86,71,55,29.91,29.72,7,2,13,0.00
2013-2-18,19.0,8.6,-1.8,2.4,-2.0,-7.3,78,63,45,30.11,29.91,8,2,12,0.00
2013-2-19,35.2,27.2,11.8,33.7,19.1,1.0,100,72,52,29.93,29.45,8,1,15,0.31
2013-2-20,28.8,23.6,10.4,23.7,17.7,7.8,91,78,63,29.78,29.50,8,3,16,0.00
2013-2-21,19.0,11.8,3.6,16.8,7.0,-0.7,91,81,74,30.28,29.77,6,2,11,0.00
2013-2-22,37.2,27.3,18.1,27.1,21.7,16.2,93,80,62,30.30,30.00,4,1,11,0.06
2013-2-23,38.7,34.3,30.0,36.0,31.1,24.2,100,88,75,30.00,29.72,6,0,11,0.07
2013-2-24,33.8,32.4,31.5,33.6,32.0,30.1,100,98,91,29.72,29.69,2,0,4,0.01